Asbury, Illinois
Current Conditions -  °F | °C
As of 2:18 AM on Tuesday 27 Jan 2015 (Local Time) from KCUL Reporting Station
Haze Haze  
Wind Chill:   Ceiling: 3300
Heat Index:   Visibility: 4mi
Dew Point:   Wind: 0mph
Humidity: 100%   Direction: NA
Pressure: 29.91"   Gusts: NA
Location:  37.8866°N, 88.266°W
Report Text: KCUL 270818Z AUTO 00000KT 4SM BR OVC033 01/01 A2991 RMK AO2
Loading
Personal Weather Stations






























Interactive Weather Map New forecast layout! Learn more

10-Day Weather Forecast

Advertisements
Track Severe Weather on mobile